Harmon, Arkansas
Current Conditions -  °F | °C
As of 6:53 AM on Wednesday 26 Nov 2014 (Local Time) from KFYV Reporting Station
Overcast Overcast  
Wind Chill: 42°   Ceiling: 9500
Heat Index: 44°   Visibility: 10mi
Dew Point: 27°   Wind: 5mph
Humidity: 51%   Direction: 230°SW
Pressure: 29.99"   Gusts: NA
Location:  35.9902°N, 94.083°W
Report Text: KFYV 261253Z 23004KT 10SM OVC095 07/M03 A2999 RMK AO2 SLP161 T00671028
Loading
Personal Weather Stations






























Interactive Weather Map New forecast layout! Learn more

10-Day Weather Forecast

Advertisements
Track Severe Weather on mobile